JAL3740 RJFC-RJFK
Flight info
| Callsign | JAL3740 |
|---|---|
| Flight time | 0h 23m |
| Altitude | 13000 |
| Route | KOUKI AMMON Y455 KINKO |
| Aircraft | B738/M-SDE2E3FGHIRWXY/LB1 |
Departure
| Time | 2026-04-25 09:59 |
|---|---|
| Airport | Yakushima Airport (RJFC) |
Arrival
| Time | 2026-04-25 10:23 |
|---|---|
| Airport | Kagoshima Airport (RJFK) |
| Time | Latitude | Longitude | Altitude | Speed | Heading |
|---|---|---|---|---|---|
| 2026-04-25 09:47 | 30.38379 | 130.65971 | 123 ft | 0 kts | 223° |
| 2026-04-25 09:55 | 30.38377 | 130.65971 | 127 ft | 1 kts | 210° |
| 2026-04-25 09:55 | 30.38347 | 130.65961 | 124 ft | 1 kts | 230° |
| 2026-04-25 09:55 | 30.38352 | 130.65951 | 122 ft | 3 kts | 314° |
| 2026-04-25 09:56 | 30.38387 | 130.65952 | 123 ft | 7 kts | 31° |
| 2026-04-25 09:56 | 30.38438 | 130.66003 | 123 ft | 12 kts | 28° |
| 2026-04-25 09:56 | 30.38523 | 130.65961 | 129 ft | 15 kts | 314° |
| 2026-04-25 09:56 | 30.38595 | 130.65875 | 125 ft | 15 kts | 314° |
| 2026-04-25 09:57 | 30.38664 | 130.65791 | 128 ft | 14 kts | 314° |
| 2026-04-25 09:57 | 30.38732 | 130.65708 | 127 ft | 16 kts | 314° |
| 2026-04-25 09:57 | 30.38744 | 130.65694 | 125 ft | 5 kts | 314° |
| 2026-04-25 09:57 | 30.38791 | 130.65638 | 125 ft | 15 kts | 314° |
| 2026-04-25 09:58 | 30.38889 | 130.65522 | 120 ft | 25 kts | 315° |
| 2026-04-25 09:58 | 30.38983 | 130.65382 | 119 ft | 18 kts | 322° |
| 2026-04-25 09:58 | 30.39002 | 130.65386 | 117 ft | 2 kts | 95° |
| 2026-04-25 09:58 | 30.38992 | 130.65403 | 117 ft | 3 kts | 130° |
| 2026-04-25 09:59 | 30.38906 | 130.65503 | 121 ft | 55 kts | 134° |
| 2026-04-25 09:59 | 30.38429 | 130.66075 | 129 ft | 140 kts | 138° |
| 2026-04-25 09:59 | 30.37636 | 130.66970 | 675 ft | 169 kts | 132° |
| 2026-04-25 09:59 | 30.36841 | 130.68065 | 1457 ft | 189 kts | 110° |
| 2026-04-25 10:00 | 30.36828 | 130.69633 | 1765 ft | 210 kts | 63° |
| 2026-04-25 10:00 | 30.37902 | 130.70785 | 2291 ft | 228 kts | 25° |
| 2026-04-25 10:00 | 30.39579 | 130.70908 | 2743 ft | 257 kts | 354° |
| 2026-04-25 10:00 | 30.41375 | 130.70466 | 3536 ft | 269 kts | 351° |
| 2026-04-25 10:01 | 30.43209 | 130.70000 | 4578 ft | 270 kts | 351° |
| 2026-04-25 10:01 | 30.45043 | 130.69489 | 5521 ft | 275 kts | 350° |
| 2026-04-25 10:01 | 30.46932 | 130.68988 | 6378 ft | 281 kts | 351° |
| 2026-04-25 10:01 | 30.48867 | 130.68528 | 7200 ft | 287 kts | 351° |
| 2026-04-25 10:02 | 30.50839 | 130.68105 | 8086 ft | 290 kts | 350° |
| 2026-04-25 10:02 | 30.52848 | 130.67706 | 8988 ft | 294 kts | 349° |
| 2026-04-25 10:02 | 30.54882 | 130.67324 | 9875 ft | 299 kts | 348° |
| 2026-04-25 10:02 | 30.56965 | 130.66947 | 10524 ft | 311 kts | 348° |
| 2026-04-25 10:03 | 30.59194 | 130.66549 | 10728 ft | 338 kts | 349° |
| 2026-04-25 10:03 | 30.61574 | 130.66132 | 10922 ft | 362 kts | 348° |
| 2026-04-25 10:03 | 30.64144 | 130.65687 | 11165 ft | 383 kts | 348° |
| 2026-04-25 10:03 | 30.66809 | 130.65230 | 11762 ft | 390 kts | 348° |
| 2026-04-25 10:04 | 30.69499 | 130.64770 | 12500 ft | 392 kts | 348° |
| 2026-04-25 10:04 | 30.72203 | 130.64305 | 12902 ft | 392 kts | 348° |
| 2026-04-25 10:04 | 30.74934 | 130.63935 | 13005 ft | 403 kts | 352° |
| 2026-04-25 10:04 | 30.77781 | 130.63735 | 13017 ft | 415 kts | 354° |
| 2026-04-25 10:05 | 30.80676 | 130.63600 | 13006 ft | 415 kts | 355° |
| 2026-04-25 10:05 | 30.82624 | 130.63516 | 13003 ft | 412 kts | 355° |
| 2026-04-25 10:05 | 30.85485 | 130.63389 | 13013 ft | 411 kts | 355° |
| 2026-04-25 10:05 | 30.88299 | 130.63249 | 13011 ft | 410 kts | 355° |
| 2026-04-25 10:06 | 30.91151 | 130.63092 | 13017 ft | 410 kts | 354° |
| 2026-04-25 10:06 | 30.93999 | 130.62927 | 13020 ft | 411 kts | 354° |
| 2026-04-25 10:06 | 30.96858 | 130.62756 | 13018 ft | 411 kts | 355° |
| 2026-04-25 10:06 | 30.99714 | 130.62586 | 13018 ft | 412 kts | 354° |
| 2026-04-25 10:07 | 31.02571 | 130.62416 | 13015 ft | 412 kts | 354° |
| 2026-04-25 10:07 | 31.05436 | 130.62244 | 13019 ft | 412 kts | 354° |
| 2026-04-25 10:07 | 31.08303 | 130.62073 | 13019 ft | 413 kts | 354° |
| 2026-04-25 10:07 | 31.11173 | 130.61902 | 13019 ft | 413 kts | 354° |
| 2026-04-25 10:08 | 31.14044 | 130.61730 | 13019 ft | 413 kts | 354° |
| 2026-04-25 10:08 | 31.16917 | 130.61678 | 13006 ft | 416 kts | 4° |
| 2026-04-25 10:08 | 31.19696 | 130.62621 | 13037 ft | 420 kts | 24° |
| 2026-04-25 10:08 | 31.22243 | 130.64318 | 13032 ft | 422 kts | 30° |
| 2026-04-25 10:09 | 31.24745 | 130.66111 | 13021 ft | 422 kts | 30° |
| 2026-04-25 10:09 | 31.27261 | 130.67874 | 13015 ft | 422 kts | 29° |
| 2026-04-25 10:09 | 31.29798 | 130.69612 | 13018 ft | 422 kts | 27° |
| 2026-04-25 10:09 | 31.32490 | 130.70880 | 13016 ft | 417 kts | 9° |
| 2026-04-25 10:10 | 31.35354 | 130.71111 | 12760 ft | 409 kts | 352° |
| 2026-04-25 10:10 | 31.38067 | 130.70375 | 12393 ft | 394 kts | 339° |
| 2026-04-25 10:10 | 31.40625 | 130.69369 | 12026 ft | 382 kts | 339° |
| 2026-04-25 10:10 | 31.43110 | 130.68393 | 11681 ft | 372 kts | 339° |
| 2026-04-25 10:11 | 31.45537 | 130.67450 | 11354 ft | 363 kts | 339° |
| 2026-04-25 10:11 | 31.47905 | 130.66541 | 11028 ft | 355 kts | 340° |
| 2026-04-25 10:11 | 31.50232 | 130.65656 | 10713 ft | 347 kts | 340° |
| 2026-04-25 10:11 | 31.52506 | 130.64796 | 10407 ft | 340 kts | 340° |
| 2026-04-25 10:12 | 31.54737 | 130.63954 | 10103 ft | 334 kts | 340° |
| 2026-04-25 10:12 | 31.56919 | 130.63131 | 9972 ft | 323 kts | 340° |
| 2026-04-25 10:12 | 31.61021 | 130.61585 | 9905 ft | 297 kts | 339° |
| 2026-04-25 10:13 | 31.62938 | 130.60861 | 9827 ft | 287 kts | 339° |
| 2026-04-25 10:13 | 31.64799 | 130.60159 | 9696 ft | 279 kts | 339° |
| 2026-04-25 10:13 | 31.66634 | 130.59465 | 9382 ft | 275 kts | 339° |
| 2026-04-25 10:13 | 31.68478 | 130.58769 | 8865 ft | 275 kts | 340° |
| 2026-04-25 10:14 | 31.70276 | 130.58095 | 8374 ft | 275 kts | 341° |
| 2026-04-25 10:14 | 31.72107 | 130.57452 | 7943 ft | 274 kts | 342° |
| 2026-04-25 10:14 | 31.73930 | 130.56827 | 7524 ft | 271 kts | 343° |
| 2026-04-25 10:14 | 31.75733 | 130.56209 | 7231 ft | 268 kts | 343° |
| 2026-04-25 10:15 | 31.77526 | 130.55591 | 6975 ft | 268 kts | 343° |
| 2026-04-25 10:15 | 31.79319 | 130.54973 | 6731 ft | 270 kts | 343° |
| 2026-04-25 10:15 | 31.81125 | 130.54350 | 6497 ft | 273 kts | 344° |
| 2026-04-25 10:15 | 31.82949 | 130.53719 | 6240 ft | 274 kts | 345° |
| 2026-04-25 10:16 | 31.84779 | 130.53083 | 5962 ft | 273 kts | 344° |
| 2026-04-25 10:16 | 31.86595 | 130.52453 | 5719 ft | 272 kts | 345° |
| 2026-04-25 10:16 | 31.88406 | 130.51826 | 5474 ft | 271 kts | 345° |
| 2026-04-25 10:16 | 31.90250 | 130.51496 | 5198 ft | 268 kts | 9° |
| 2026-04-25 10:17 | 31.91939 | 130.52224 | 4956 ft | 253 kts | 38° |
| 2026-04-25 10:17 | 31.93151 | 130.53632 | 4702 ft | 239 kts | 58° |
| 2026-04-25 10:17 | 31.94007 | 130.55255 | 4501 ft | 228 kts | 63° |
| 2026-04-25 10:17 | 31.94781 | 130.56852 | 4280 ft | 220 kts | 63° |
| 2026-04-25 10:18 | 31.95504 | 130.58400 | 4085 ft | 211 kts | 70° |
| 2026-04-25 10:18 | 31.95687 | 130.59969 | 3885 ft | 201 kts | 99° |
| 2026-04-25 10:18 | 31.95184 | 130.61462 | 3706 ft | 197 kts | 123° |
| 2026-04-25 10:18 | 31.94171 | 130.62562 | 3573 ft | 202 kts | 146° |
| 2026-04-25 10:19 | 31.92976 | 130.63389 | 3386 ft | 197 kts | 146° |
| 2026-04-25 10:19 | 31.91814 | 130.64188 | 3194 ft | 190 kts | 146° |
| 2026-04-25 10:19 | 31.90686 | 130.64942 | 3025 ft | 183 kts | 145° |
| 2026-04-25 10:19 | 31.89606 | 130.65675 | 2863 ft | 174 kts | 144° |
| 2026-04-25 10:20 | 31.88588 | 130.66362 | 2635 ft | 166 kts | 144° |
| 2026-04-25 10:20 | 31.87623 | 130.67008 | 2413 ft | 152 kts | 142° |
| 2026-04-25 10:20 | 31.86742 | 130.67610 | 2191 ft | 144 kts | 141° |
| 2026-04-25 10:20 | 31.85862 | 130.68203 | 2008 ft | 147 kts | 142° |
| 2026-04-25 10:21 | 31.84979 | 130.68795 | 1800 ft | 146 kts | 144° |
| 2026-04-25 10:21 | 31.84119 | 130.69383 | 1604 ft | 142 kts | 145° |
| 2026-04-25 10:21 | 31.83248 | 130.69978 | 1402 ft | 146 kts | 146° |
| 2026-04-25 10:21 | 31.82364 | 130.70568 | 1151 ft | 146 kts | 145° |
| 2026-04-25 10:22 | 31.81482 | 130.71178 | 956 ft | 148 kts | 147° |
| 2026-04-25 10:22 | 31.80625 | 130.71751 | 914 ft | 129 kts | 149° |
| 2026-04-25 10:22 | 31.79951 | 130.72202 | 911 ft | 94 kts | 149° |
| 2026-04-25 10:22 | 31.79486 | 130.72518 | 912 ft | 60 kts | 150° |
| 2026-04-25 10:23 | 31.79229 | 130.72688 | 910 ft | 18 kts | 154° |
| 2026-04-25 10:23 | 31.79135 | 130.72634 | 911 ft | 17 kts | 236° |
| 2026-04-25 10:23 | 31.79122 | 130.72541 | 908 ft | 11 kts | 303° |
| 2026-04-25 10:23 | 31.79180 | 130.72491 | 911 ft | 10 kts | 331° |
| 2026-04-25 10:24 | 31.79242 | 130.72451 | 909 ft | 10 kts | 331° |
| 2026-04-25 10:24 | 31.79301 | 130.72410 | 907 ft | 10 kts | 328° |
| 2026-04-25 10:24 | 31.79371 | 130.72362 | 907 ft | 14 kts | 330° |
| 2026-04-25 10:24 | 31.79469 | 130.72298 | 909 ft | 18 kts | 332° |
| 2026-04-25 10:25 | 31.79587 | 130.72225 | 906 ft | 20 kts | 332° |
| 2026-04-25 10:25 | 31.79677 | 130.72164 | 904 ft | 13 kts | 330° |
| 2026-04-25 10:25 | 31.79755 | 130.72114 | 905 ft | 13 kts | 331° |
| 2026-04-25 10:25 | 31.79829 | 130.72062 | 907 ft | 12 kts | 329° |
| 2026-04-25 10:26 | 31.79900 | 130.72011 | 906 ft | 12 kts | 328° |
| 2026-04-25 10:26 | 31.79970 | 130.71961 | 908 ft | 12 kts | 330° |
| 2026-04-25 10:26 | 31.80039 | 130.71914 | 905 ft | 11 kts | 330° |
| 2026-04-25 10:26 | 31.80106 | 130.71868 | 906 ft | 11 kts | 329° |
| 2026-04-25 10:27 | 31.80142 | 130.71814 | 903 ft | 9 kts | 267° |
| 2026-04-25 10:27 | 31.80113 | 130.71744 | 901 ft | 10 kts | 239° |
| 2026-04-25 10:27 | 31.80104 | 130.71726 | 901 ft | 1 kts | 239° |
| 2026-04-25 10:27 | 31.80101 | 130.71720 | 901 ft | 0 kts | 240° |
| 2026-04-25 10:28 | 31.80099 | 130.71716 | 901 ft | 2 kts | 240° |
| 2026-04-25 10:28 | 31.80096 | 130.71710 | 901 ft | 0 kts | 240° |